sensor_id;sensor_type;location;lat;lon;timestamp;P1;durP1;ratioP1;P2;durP2;ratioP2
54831;SDS011;40730;53.068;6.572;2023-08-08T00:02:19;6.20;;;2.70;;
54831;SDS011;40730;53.068;6.572;2023-08-08T00:04:45;5.53;;;2.63;;
54831;SDS011;40730;53.068;6.572;2023-08-08T00:07:11;4.30;;;2.47;;
54831;SDS011;40730;53.068;6.572;2023-08-08T00:09:37;5.30;;;1.98;;
54831;SDS011;40730;53.068;6.572;2023-08-08T00:12:02;6.10;;;2.55;;
54831;SDS011;40730;53.068;6.572;2023-08-08T00:14:29;6.60;;;2.78;;
54831;SDS011;40730;53.068;6.572;2023-08-08T00:16:54;10.15;;;2.70;;
54831;SDS011;40730;53.068;6.572;2023-08-08T00:19:20;5.93;;;2.50;;
54831;SDS011;40730;53.068;6.572;2023-08-08T00:21:45;4.70;;;2.38;;
54831;SDS011;40730;53.068;6.572;2023-08-08T00:24:11;10.57;;;3.17;;
54831;SDS011;40730;53.068;6.572;2023-08-08T00:26:37;5.40;;;2.80;;
54831;SDS011;40730;53.068;6.572;2023-08-08T00:29:02;6.25;;;2.63;;
54831;SDS011;40730;53.068;6.572;2023-08-08T00:31:28;8.13;;;3.58;;
54831;SDS011;40730;53.068;6.572;2023-08-08T00:33:53;5.85;;;3.60;;
54831;SDS011;40730;53.068;6.572;2023-08-08T00:36:19;5.63;;;2.97;;
54831;SDS011;40730;53.068;6.572;2023-08-08T00:38:45;6.05;;;3.08;;
54831;SDS011;40730;53.068;6.572;2023-08-08T00:41:10;4.57;;;3.00;;
54831;SDS011;40730;53.068;6.572;2023-08-08T00:43:36;4.63;;;2.92;;
54831;SDS011;40730;53.068;6.572;2023-08-08T00:46:01;5.18;;;3.13;;
54831;SDS011;40730;53.068;6.572;2023-08-08T00:48:27;6.85;;;3.03;;
54831;SDS011;40730;53.068;6.572;2023-08-08T00:50:53;4.82;;;2.95;;
54831;SDS011;40730;53.068;6.572;2023-08-08T00:53:19;7.68;;;3.90;;
54831;SDS011;40730;53.068;6.572;2023-08-08T00:55:45;6.95;;;2.90;;
54831;SDS011;40730;53.068;6.572;2023-08-08T00:58:11;7.03;;;3.33;;
54831;SDS011;40730;53.068;6.572;2023-08-08T01:00:37;10.13;;;3.17;;
54831;SDS011;40730;53.068;6.572;2023-08-08T01:03:03;6.78;;;3.42;;
54831;SDS011;40730;53.068;6.572;2023-08-08T01:05:30;6.20;;;3.15;;
54831;SDS011;40730;53.068;6.572;2023-08-08T01:08:10;4.65;;;2.58;;
54831;SDS011;40730;53.068;6.572;2023-08-08T01:10:40;4.45;;;2.80;;
54831;SDS011;40730;53.068;6.572;2023-08-08T01:13:12;5.95;;;2.13;;
54831;SDS011;40730;53.068;6.572;2023-08-08T01:15:42;4.60;;;2.28;;
54831;SDS011;40730;53.068;6.572;2023-08-08T01:18:10;4.22;;;2.08;;
54831;SDS011;40730;53.068;6.572;2023-08-08T01:20:36;3.97;;;2.28;;
54831;SDS011;40730;53.068;6.572;2023-08-08T01:25:46;6.05;;;2.22;;
54831;SDS011;40730;53.068;6.572;2023-08-08T01:28:13;5.80;;;2.03;;
54831;SDS011;40730;53.068;6.572;2023-08-08T01:30:39;3.45;;;1.98;;
54831;SDS011;40730;53.068;6.572;2023-08-08T01:33:05;3.03;;;2.30;;
54831;SDS011;40730;53.068;6.572;2023-08-08T01:35:32;5.35;;;2.63;;
54831;SDS011;40730;53.068;6.572;2023-08-08T01:38:04;3.72;;;1.90;;
54831;SDS011;40730;53.068;6.572;2023-08-08T01:40:37;5.00;;;2.35;;
54831;SDS011;40730;53.068;6.572;2023-08-08T01:43:04;2.55;;;1.85;;
54831;SDS011;40730;53.068;6.572;2023-08-08T01:45:30;3.13;;;2.25;;
54831;SDS011;40730;53.068;6.572;2023-08-08T01:47:55;7.00;;;2.72;;
54831;SDS011;40730;53.068;6.572;2023-08-08T01:50:21;7.97;;;2.78;;
54831;SDS011;40730;53.068;6.572;2023-08-08T01:52:47;8.02;;;2.25;;
54831;SDS011;40730;53.068;6.572;2023-08-08T01:55:12;7.28;;;2.88;;
54831;SDS011;40730;53.068;6.572;2023-08-08T01:57:38;4.53;;;2.65;;
54831;SDS011;40730;53.068;6.572;2023-08-08T02:00:05;8.63;;;3.45;;
54831;SDS011;40730;53.068;6.572;2023-08-08T02:02:31;5.32;;;2.53;;
54831;SDS011;40730;53.068;6.572;2023-08-08T02:04:57;7.78;;;3.53;;
54831;SDS011;40730;53.068;6.572;2023-08-08T02:07:23;6.57;;;3.17;;
54831;SDS011;40730;53.068;6.572;2023-08-08T02:09:49;6.38;;;3.15;;
54831;SDS011;40730;53.068;6.572;2023-08-08T02:12:16;5.45;;;3.05;;
54831;SDS011;40730;53.068;6.572;2023-08-08T02:14:41;7.05;;;3.42;;
54831;SDS011;40730;53.068;6.572;2023-08-08T02:17:07;5.75;;;3.50;;
54831;SDS011;40730;53.068;6.572;2023-08-08T02:19:33;7.75;;;2.85;;
54831;SDS011;40730;53.068;6.572;2023-08-08T02:21:58;9.00;;;4.00;;
54831;SDS011;40730;53.068;6.572;2023-08-08T02:24:24;6.38;;;3.60;;
54831;SDS011;40730;53.068;6.572;2023-08-08T02:26:49;5.55;;;4.15;;
54831;SDS011;40730;53.068;6.572;2023-08-08T02:29:15;7.47;;;3.63;;
54831;SDS011;40730;53.068;6.572;2023-08-08T02:31:41;4.90;;;3.20;;
54831;SDS011;40730;53.068;6.572;2023-08-08T02:34:06;8.07;;;3.85;;
54831;SDS011;40730;53.068;6.572;2023-08-08T02:36:32;5.82;;;3.55;;
54831;SDS011;40730;53.068;6.572;2023-08-08T02:38:58;11.73;;;4.57;;
54831;SDS011;40730;53.068;6.572;2023-08-08T02:41:24;7.00;;;3.85;;
54831;SDS011;40730;53.068;6.572;2023-08-08T02:43:49;3.92;;;3.20;;
54831;SDS011;40730;53.068;6.572;2023-08-08T02:46:15;17.95;;;3.80;;
54831;SDS011;40730;53.068;6.572;2023-08-08T02:48:41;8.70;;;4.18;;
54831;SDS011;40730;53.068;6.572;2023-08-08T02:51:07;8.40;;;4.25;;
54831;SDS011;40730;53.068;6.572;2023-08-08T02:53:32;7.07;;;3.60;;
54831;SDS011;40730;53.068;6.572;2023-08-08T02:55:58;8.20;;;4.07;;
54831;SDS011;40730;53.068;6.572;2023-08-08T02:58:23;11.13;;;4.20;;
54831;SDS011;40730;53.068;6.572;2023-08-08T03:00:49;12.05;;;3.35;;
54831;SDS011;40730;53.068;6.572;2023-08-08T03:03:15;6.60;;;3.20;;
54831;SDS011;40730;53.068;6.572;2023-08-08T03:05:40;7.47;;;3.55;;
54831;SDS011;40730;53.068;6.572;2023-08-08T03:08:06;8.40;;;3.53;;
54831;SDS011;40730;53.068;6.572;2023-08-08T03:10:32;9.20;;;3.80;;
54831;SDS011;40730;53.068;6.572;2023-08-08T03:12:57;9.45;;;3.67;;
54831;SDS011;40730;53.068;6.572;2023-08-08T03:15:23;8.88;;;3.83;;
54831;SDS011;40730;53.068;6.572;2023-08-08T03:17:48;4.82;;;3.45;;
54831;SDS011;40730;53.068;6.572;2023-08-08T03:20:14;4.07;;;2.95;;
54831;SDS011;40730;53.068;6.572;2023-08-08T03:22:40;9.60;;;3.28;;
54831;SDS011;40730;53.068;6.572;2023-08-08T03:25:05;7.43;;;3.20;;
54831;SDS011;40730;53.068;6.572;2023-08-08T03:27:31;6.20;;;3.17;;
54831;SDS011;40730;53.068;6.572;2023-08-08T03:29:57;7.78;;;3.17;;
54831;SDS011;40730;53.068;6.572;2023-08-08T03:32:23;11.15;;;3.38;;
54831;SDS011;40730;53.068;6.572;2023-08-08T03:34:48;7.20;;;3.20;;
54831;SDS011;40730;53.068;6.572;2023-08-08T03:37:14;6.60;;;1.92;;
54831;SDS011;40730;53.068;6.572;2023-08-08T03:39:40;7.90;;;2.38;;
54831;SDS011;40730;53.068;6.572;2023-08-08T03:42:05;7.43;;;2.33;;
54831;SDS011;40730;53.068;6.572;2023-08-08T03:44:31;5.75;;;1.75;;
54831;SDS011;40730;53.068;6.572;2023-08-08T03:46:57;8.52;;;2.33;;
54831;SDS011;40730;53.068;6.572;2023-08-08T03:49:23;11.85;;;2.08;;
54831;SDS011;40730;53.068;6.572;2023-08-08T03:51:48;6.50;;;2.00;;
54831;SDS011;40730;53.068;6.572;2023-08-08T03:54:14;6.15;;;1.88;;
54831;SDS011;40730;53.068;6.572;2023-08-08T03:56:40;9.32;;;2.25;;
54831;SDS011;40730;53.068;6.572;2023-08-08T03:59:06;8.30;;;2.70;;
54831;SDS011;40730;53.068;6.572;2023-08-08T04:01:32;5.15;;;2.20;;
54831;SDS011;40730;53.068;6.572;2023-08-08T04:03:57;6.43;;;2.22;;
54831;SDS011;40730;53.068;6.572;2023-08-08T04:06:23;13.80;;;2.50;;
54831;SDS011;40730;53.068;6.572;2023-08-08T04:08:49;14.45;;;2.80;;
54831;SDS011;40730;53.068;6.572;2023-08-08T04:11:15;12.20;;;2.83;;
54831;SDS011;40730;53.068;6.572;2023-08-08T04:13:40;11.50;;;3.30;;
54831;SDS011;40730;53.068;6.572;2023-08-08T04:16:06;6.55;;;3.08;;
54831;SDS011;40730;53.068;6.572;2023-08-08T04:18:31;10.30;;;2.78;;
54831;SDS011;40730;53.068;6.572;2023-08-08T04:20:57;8.38;;;2.70;;
54831;SDS011;40730;53.068;6.572;2023-08-08T04:23:23;12.77;;;3.70;;
54831;SDS011;40730;53.068;6.572;2023-08-08T04:25:51;11.50;;;3.47;;
54831;SDS011;40730;53.068;6.572;2023-08-08T04:28:17;10.95;;;3.70;;
54831;SDS011;40730;53.068;6.572;2023-08-08T04:30:42;7.50;;;3.72;;
54831;SDS011;40730;53.068;6.572;2023-08-08T04:33:08;10.55;;;4.15;;
54831;SDS011;40730;53.068;6.572;2023-08-08T04:35:34;8.38;;;3.60;;
54831;SDS011;40730;53.068;6.572;2023-08-08T04:38:00;10.40;;;3.70;;
54831;SDS011;40730;53.068;6.572;2023-08-08T04:40:26;9.02;;;3.55;;
54831;SDS011;40730;53.068;6.572;2023-08-08T04:42:51;8.65;;;3.63;;
54831;SDS011;40730;53.068;6.572;2023-08-08T04:45:17;7.88;;;3.33;;
54831;SDS011;40730;53.068;6.572;2023-08-08T04:47:43;8.00;;;3.13;;
54831;SDS011;40730;53.068;6.572;2023-08-08T04:50:09;12.07;;;2.67;;
54831;SDS011;40730;53.068;6.572;2023-08-08T04:52:35;11.57;;;2.35;;
54831;SDS011;40730;53.068;6.572;2023-08-08T04:55:01;8.40;;;2.88;;
54831;SDS011;40730;53.068;6.572;2023-08-08T04:57:27;9.98;;;1.88;;
54831;SDS011;40730;53.068;6.572;2023-08-08T04:59:52;6.47;;;1.48;;
54831;SDS011;40730;53.068;6.572;2023-08-08T05:02:18;8.57;;;1.80;;
54831;SDS011;40730;53.068;6.572;2023-08-08T05:04:43;11.48;;;1.70;;
54831;SDS011;40730;53.068;6.572;2023-08-08T05:07:09;13.07;;;1.33;;
54831;SDS011;40730;53.068;6.572;2023-08-08T05:09:35;8.88;;;1.40;;
54831;SDS011;40730;53.068;6.572;2023-08-08T05:12:00;6.70;;;1.60;;
54831;SDS011;40730;53.068;6.572;2023-08-08T05:14:27;4.95;;;1.38;;
54831;SDS011;40730;53.068;6.572;2023-08-08T05:16:52;13.32;;;2.58;;
54831;SDS011;40730;53.068;6.572;2023-08-08T05:19:18;8.95;;;1.45;;
54831;SDS011;40730;53.068;6.572;2023-08-08T05:21:43;9.60;;;1.40;;
54831;SDS011;40730;53.068;6.572;2023-08-08T05:24:09;5.20;;;1.65;;
54831;SDS011;40730;53.068;6.572;2023-08-08T05:26:35;8.13;;;1.00;;
54831;SDS011;40730;53.068;6.572;2023-08-08T05:29:00;12.32;;;1.40;;
54831;SDS011;40730;53.068;6.572;2023-08-08T05:31:26;10.85;;;1.40;;
54831;SDS011;40730;53.068;6.572;2023-08-08T05:33:52;9.77;;;0.90;;
54831;SDS011;40730;53.068;6.572;2023-08-08T05:36:17;6.10;;;1.10;;
54831;SDS011;40730;53.068;6.572;2023-08-08T05:38:43;6.53;;;0.82;;
54831;SDS011;40730;53.068;6.572;2023-08-08T05:41:09;9.02;;;1.30;;
54831;SDS011;40730;53.068;6.572;2023-08-08T05:43:34;10.63;;;1.00;;
54831;SDS011;40730;53.068;6.572;2023-08-08T05:46:01;6.97;;;0.93;;
54831;SDS011;40730;53.068;6.572;2023-08-08T05:48:27;5.80;;;0.80;;
54831;SDS011;40730;53.068;6.572;2023-08-08T05:50:52;5.85;;;0.80;;
54831;SDS011;40730;53.068;6.572;2023-08-08T05:53:18;8.15;;;0.73;;
54831;SDS011;40730;53.068;6.572;2023-08-08T05:55:44;7.55;;;1.15;;
54831;SDS011;40730;53.068;6.572;2023-08-08T05:58:09;7.07;;;0.52;;
54831;SDS011;40730;53.068;6.572;2023-08-08T06:00:35;4.80;;;0.63;;
54831;SDS011;40730;53.068;6.572;2023-08-08T06:03:01;12.30;;;0.40;;
54831;SDS011;40730;53.068;6.572;2023-08-08T06:05:27;4.47;;;0.40;;
54831;SDS011;40730;53.068;6.572;2023-08-08T06:07:53;2.55;;;0.40;;
54831;SDS011;40730;53.068;6.572;2023-08-08T06:10:20;9.20;;;0.75;;
54831;SDS011;40730;53.068;6.572;2023-08-08T06:12:46;5.75;;;0.40;;
54831;SDS011;40730;53.068;6.572;2023-08-08T06:15:12;4.22;;;0.50;;
54831;SDS011;40730;53.068;6.572;2023-08-08T06:17:38;5.47;;;0.88;;
54831;SDS011;40730;53.068;6.572;2023-08-08T06:20:04;6.38;;;0.50;;
54831;SDS011;40730;53.068;6.572;2023-08-08T06:22:31;10.63;;;0.88;;
54831;SDS011;40730;53.068;6.572;2023-08-08T06:24:57;9.55;;;0.50;;
54831;SDS011;40730;53.068;6.572;2023-08-08T06:27:23;3.50;;;0.40;;
54831;SDS011;40730;53.068;6.572;2023-08-08T06:29:48;5.10;;;0.43;;
54831;SDS011;40730;53.068;6.572;2023-08-08T06:32:14;5.60;;;0.50;;
54831;SDS011;40730;53.068;6.572;2023-08-08T06:34:39;7.88;;;0.30;;
54831;SDS011;40730;53.068;6.572;2023-08-08T06:37:05;2.15;;;0.38;;
54831;SDS011;40730;53.068;6.572;2023-08-08T06:39:31;4.47;;;0.93;;
54831;SDS011;40730;53.068;6.572;2023-08-08T06:41:57;8.02;;;0.30;;
54831;SDS011;40730;53.068;6.572;2023-08-08T06:44:22;6.60;;;0.50;;
54831;SDS011;40730;53.068;6.572;2023-08-08T06:46:48;7.43;;;0.50;;
54831;SDS011;40730;53.068;6.572;2023-08-08T06:49:14;3.63;;;0.50;;
54831;SDS011;40730;53.068;6.572;2023-08-08T06:51:39;4.47;;;0.40;;
54831;SDS011;40730;53.068;6.572;2023-08-08T06:54:05;3.45;;;0.30;;
54831;SDS011;40730;53.068;6.572;2023-08-08T06:56:31;5.32;;;0.30;;
54831;SDS011;40730;53.068;6.572;2023-08-08T06:58:56;4.88;;;0.40;;
54831;SDS011;40730;53.068;6.572;2023-08-08T07:01:22;6.75;;;0.32;;
54831;SDS011;40730;53.068;6.572;2023-08-08T07:03:48;6.38;;;0.30;;
54831;SDS011;40730;53.068;6.572;2023-08-08T07:06:14;3.85;;;0.73;;
54831;SDS011;40730;53.068;6.572;2023-08-08T07:08:42;5.38;;;0.40;;
54831;SDS011;40730;53.068;6.572;2023-08-08T07:11:08;3.38;;;0.30;;
54831;SDS011;40730;53.068;6.572;2023-08-08T07:13:33;6.28;;;0.30;;
54831;SDS011;40730;53.068;6.572;2023-08-08T07:15:59;2.80;;;0.20;;
54831;SDS011;40730;53.068;6.572;2023-08-08T07:18:25;4.00;;;0.20;;
54831;SDS011;40730;53.068;6.572;2023-08-08T07:20:50;4.10;;;0.40;;
54831;SDS011;40730;53.068;6.572;2023-08-08T07:23:16;8.70;;;0.68;;
54831;SDS011;40730;53.068;6.572;2023-08-08T07:25:42;8.02;;;0.60;;
54831;SDS011;40730;53.068;6.572;2023-08-08T07:28:08;6.85;;;0.30;;
54831;SDS011;40730;53.068;6.572;2023-08-08T07:30:34;2.90;;;0.20;;
54831;SDS011;40730;53.068;6.572;2023-08-08T07:33:00;4.82;;;0.20;;
54831;SDS011;40730;53.068;6.572;2023-08-08T07:35:25;5.55;;;0.20;;
54831;SDS011;40730;53.068;6.572;2023-08-08T07:37:51;4.85;;;0.20;;
54831;SDS011;40730;53.068;6.572;2023-08-08T07:40:17;3.70;;;0.20;;
54831;SDS011;40730;53.068;6.572;2023-08-08T07:42:44;4.72;;;0.15;;
54831;SDS011;40730;53.068;6.572;2023-08-08T07:45:14;4.25;;;0.22;;
54831;SDS011;40730;53.068;6.572;2023-08-08T07:47:40;5.47;;;0.22;;
54831;SDS011;40730;53.068;6.572;2023-08-08T07:50:05;7.47;;;0.38;;
54831;SDS011;40730;53.068;6.572;2023-08-08T07:52:33;3.83;;;0.20;;
54831;SDS011;40730;53.068;6.572;2023-08-08T07:54:59;1.85;;;0.22;;
54831;SDS011;40730;53.068;6.572;2023-08-08T07:57:26;2.28;;;0.20;;
54831;SDS011;40730;53.068;6.572;2023-08-08T07:59:52;5.10;;;0.13;;
54831;SDS011;40730;53.068;6.572;2023-08-08T08:02:18;4.55;;;0.30;;
54831;SDS011;40730;53.068;6.572;2023-08-08T08:04:44;5.30;;;0.25;;
54831;SDS011;40730;53.068;6.572;2023-08-08T08:07:09;5.43;;;0.50;;
54831;SDS011;40730;53.068;6.572;2023-08-08T08:09:35;2.28;;;0.10;;
54831;SDS011;40730;53.068;6.572;2023-08-08T08:12:00;3.28;;;0.30;;
54831;SDS011;40730;53.068;6.572;2023-08-08T08:14:26;4.75;;;0.20;;
54831;SDS011;40730;53.068;6.572;2023-08-08T08:16:52;1.58;;;0.20;;
54831;SDS011;40730;53.068;6.572;2023-08-08T08:19:18;3.88;;;0.75;;
54831;SDS011;40730;53.068;6.572;2023-08-08T08:21:44;2.58;;;0.30;;
54831;SDS011;40730;53.068;6.572;2023-08-08T08:24:10;3.45;;;0.40;;
54831;SDS011;40730;53.068;6.572;2023-08-08T08:26:36;7.15;;;0.38;;
54831;SDS011;40730;53.068;6.572;2023-08-08T08:29:02;3.05;;;0.30;;
54831;SDS011;40730;53.068;6.572;2023-08-08T08:31:27;2.70;;;0.30;;
54831;SDS011;40730;53.068;6.572;2023-08-08T08:33:53;3.65;;;0.20;;
54831;SDS011;40730;53.068;6.572;2023-08-08T08:36:20;4.75;;;0.20;;
54831;SDS011;40730;53.068;6.572;2023-08-08T08:38:46;3.63;;;0.20;;
54831;SDS011;40730;53.068;6.572;2023-08-08T08:41:14;5.45;;;0.28;;
54831;SDS011;40730;53.068;6.572;2023-08-08T08:43:43;4.65;;;0.30;;
54831;SDS011;40730;53.068;6.572;2023-08-08T08:46:09;2.75;;;0.40;;
54831;SDS011;40730;53.068;6.572;2023-08-08T08:48:36;4.32;;;0.20;;
54831;SDS011;40730;53.068;6.572;2023-08-08T08:51:02;3.90;;;0.30;;
54831;SDS011;40730;53.068;6.572;2023-08-08T08:53:28;5.53;;;0.95;;
54831;SDS011;40730;53.068;6.572;2023-08-08T08:55:56;6.75;;;0.30;;
54831;SDS011;40730;53.068;6.572;2023-08-08T08:58:22;5.90;;;0.20;;
54831;SDS011;40730;53.068;6.572;2023-08-08T09:00:49;4.10;;;0.20;;
54831;SDS011;40730;53.068;6.572;2023-08-08T09:03:17;3.88;;;0.50;;
54831;SDS011;40730;53.068;6.572;2023-08-08T09:05:42;5.03;;;0.43;;
54831;SDS011;40730;53.068;6.572;2023-08-08T09:08:10;3.47;;;0.32;;
54831;SDS011;40730;53.068;6.572;2023-08-08T09:10:37;3.78;;;0.20;;
54831;SDS011;40730;53.068;6.572;2023-08-08T09:13:03;5.97;;;0.30;;
54831;SDS011;40730;53.068;6.572;2023-08-08T09:15:30;4.95;;;0.25;;
54831;SDS011;40730;53.068;6.572;2023-08-08T09:18:00;4.13;;;0.20;;
54831;SDS011;40730;53.068;6.572;2023-08-08T09:20:26;4.43;;;0.38;;
54831;SDS011;40730;53.068;6.572;2023-08-08T09:22:55;3.60;;;0.20;;
54831;SDS011;40730;53.068;6.572;2023-08-08T09:25:22;1.90;;;0.10;;
54831;SDS011;40730;53.068;6.572;2023-08-08T09:27:51;3.13;;;0.20;;
54831;SDS011;40730;53.068;6.572;2023-08-08T09:30:20;3.80;;;0.20;;
54831;SDS011;40730;53.068;6.572;2023-08-08T09:32:46;3.22;;;0.20;;
54831;SDS011;40730;53.068;6.572;2023-08-08T09:35:12;2.85;;;0.20;;
54831;SDS011;40730;53.068;6.572;2023-08-08T09:37:38;4.32;;;0.20;;
54831;SDS011;40730;53.068;6.572;2023-08-08T09:40:04;5.13;;;0.68;;
54831;SDS011;40730;53.068;6.572;2023-08-08T09:42:32;5.45;;;1.55;;
54831;SDS011;40730;53.068;6.572;2023-08-08T09:44:59;5.07;;;0.20;;
54831;SDS011;40730;53.068;6.572;2023-08-08T09:47:25;1.95;;;0.20;;
54831;SDS011;40730;53.068;6.572;2023-08-08T09:49:57;5.45;;;0.40;;
54831;SDS011;40730;53.068;6.572;2023-08-08T09:52:27;7.05;;;0.60;;
54831;SDS011;40730;53.068;6.572;2023-08-08T09:54:53;3.63;;;0.35;;
54831;SDS011;40730;53.068;6.572;2023-08-08T09:57:20;5.97;;;0.40;;
54831;SDS011;40730;53.068;6.572;2023-08-08T09:59:48;4.72;;;0.40;;
54831;SDS011;40730;53.068;6.572;2023-08-08T10:02:16;2.53;;;0.20;;
54831;SDS011;40730;53.068;6.572;2023-08-08T10:04:42;4.13;;;0.30;;
54831;SDS011;40730;53.068;6.572;2023-08-08T10:07:09;2.30;;;0.22;;
54831;SDS011;40730;53.068;6.572;2023-08-08T10:09:34;3.42;;;0.20;;
54831;SDS011;40730;53.068;6.572;2023-08-08T10:12:02;6.72;;;0.95;;
54831;SDS011;40730;53.068;6.572;2023-08-08T10:14:34;2.42;;;0.15;;
54831;SDS011;40730;53.068;6.572;2023-08-08T10:17:05;3.20;;;0.30;;
54831;SDS011;40730;53.068;6.572;2023-08-08T10:19:31;6.00;;;0.30;;
54831;SDS011;40730;53.068;6.572;2023-08-08T10:21:58;3.80;;;0.30;;
54831;SDS011;40730;53.068;6.572;2023-08-08T10:24:32;6.00;;;0.22;;
54831;SDS011;40730;53.068;6.572;2023-08-08T10:27:00;6.60;;;0.55;;
54831;SDS011;40730;53.068;6.572;2023-08-08T10:29:27;2.25;;;0.20;;
54831;SDS011;40730;53.068;6.572;2023-08-08T10:32:04;4.18;;;0.50;;
54831;SDS011;40730;53.068;6.572;2023-08-08T10:37:10;5.82;;;0.40;;
54831;SDS011;40730;53.068;6.572;2023-08-08T10:39:37;6.32;;;0.30;;
54831;SDS011;40730;53.068;6.572;2023-08-08T10:42:17;3.67;;;0.30;;
54831;SDS011;40730;53.068;6.572;2023-08-08T10:44:49;2.20;;;0.20;;
54831;SDS011;40730;53.068;6.572;2023-08-08T10:47:23;5.80;;;0.30;;
54831;SDS011;40730;53.068;6.572;2023-08-08T10:49:59;8.52;;;0.40;;
54831;SDS011;40730;53.068;6.572;2023-08-08T10:52:31;4.55;;;0.30;;
54831;SDS011;40730;53.068;6.572;2023-08-08T10:55:00;4.47;;;0.30;;
54831;SDS011;40730;53.068;6.572;2023-08-08T10:57:27;2.95;;;0.28;;
54831;SDS011;40730;53.068;6.572;2023-08-08T10:59:53;6.45;;;0.57;;
54831;SDS011;40730;53.068;6.572;2023-08-08T11:02:19;2.75;;;0.20;;
54831;SDS011;40730;53.068;6.572;2023-08-08T11:04:46;3.88;;;0.20;;
54831;SDS011;40730;53.068;6.572;2023-08-08T11:07:14;2.53;;;0.20;;
54831;SDS011;40730;53.068;6.572;2023-08-08T11:09:40;4.68;;;0.20;;
54831;SDS011;40730;53.068;6.572;2023-08-08T11:12:12;4.13;;;0.20;;
54831;SDS011;40730;53.068;6.572;2023-08-08T11:14:39;3.63;;;0.20;;
54831;SDS011;40730;53.068;6.572;2023-08-08T11:17:04;4.00;;;0.43;;
54831;SDS011;40730;53.068;6.572;2023-08-08T11:19:30;3.15;;;0.20;;
54831;SDS011;40730;53.068;6.572;2023-08-08T11:21:57;1.05;;;0.17;;
54831;SDS011;40730;53.068;6.572;2023-08-08T11:24:22;1.10;;;0.15;;
54831;SDS011;40730;53.068;6.572;2023-08-08T11:26:48;3.55;;;0.50;;
54831;SDS011;40730;53.068;6.572;2023-08-08T11:29:14;4.65;;;0.22;;
54831;SDS011;40730;53.068;6.572;2023-08-08T11:31:40;6.22;;;0.22;;
54831;SDS011;40730;53.068;6.572;2023-08-08T11:34:06;5.57;;;0.47;;
54831;SDS011;40730;53.068;6.572;2023-08-08T11:36:35;2.72;;;0.30;;
54831;SDS011;40730;53.068;6.572;2023-08-08T11:39:01;3.03;;;0.30;;
54831;SDS011;40730;53.068;6.572;2023-08-08T11:41:33;2.55;;;0.30;;
54831;SDS011;40730;53.068;6.572;2023-08-08T11:43:59;3.00;;;0.40;;
54831;SDS011;40730;53.068;6.572;2023-08-08T11:46:27;4.07;;;0.30;;
54831;SDS011;40730;53.068;6.572;2023-08-08T11:48:52;2.20;;;0.20;;
54831;SDS011;40730;53.068;6.572;2023-08-08T11:51:18;2.55;;;0.30;;
54831;SDS011;40730;53.068;6.572;2023-08-08T11:53:48;1.65;;;0.10;;
54831;SDS011;40730;53.068;6.572;2023-08-08T11:56:15;2.83;;;0.20;;
54831;SDS011;40730;53.068;6.572;2023-08-08T11:58:41;6.28;;;0.38;;
54831;SDS011;40730;53.068;6.572;2023-08-08T12:01:07;4.03;;;0.10;;
54831;SDS011;40730;53.068;6.572;2023-08-08T12:03:34;3.75;;;0.20;;
54831;SDS011;40730;53.068;6.572;2023-08-08T12:06:11;2.85;;;0.15;;
54831;SDS011;40730;53.068;6.572;2023-08-08T12:08:41;4.65;;;0.22;;
54831;SDS011;40730;53.068;6.572;2023-08-08T12:11:11;3.05;;;0.20;;
54831;SDS011;40730;53.068;6.572;2023-08-08T12:13:38;3.53;;;0.20;;
54831;SDS011;40730;53.068;6.572;2023-08-08T12:16:06;4.30;;;0.25;;
54831;SDS011;40730;53.068;6.572;2023-08-08T12:18:36;1.90;;;0.20;;
54831;SDS011;40730;53.068;6.572;2023-08-08T12:21:06;5.10;;;0.13;;
54831;SDS011;40730;53.068;6.572;2023-08-08T12:23:33;5.43;;;0.20;;
54831;SDS011;40730;53.068;6.572;2023-08-08T12:25:59;5.03;;;0.40;;
54831;SDS011;40730;53.068;6.572;2023-08-08T12:28:25;2.42;;;0.20;;
54831;SDS011;40730;53.068;6.572;2023-08-08T12:30:51;1.98;;;0.10;;
54831;SDS011;40730;53.068;6.572;2023-08-08T12:33:17;2.78;;;0.30;;
54831;SDS011;40730;53.068;6.572;2023-08-08T12:35:42;3.55;;;0.20;;
54831;SDS011;40730;53.068;6.572;2023-08-08T12:38:08;3.28;;;0.30;;
54831;SDS011;40730;53.068;6.572;2023-08-08T12:40:35;4.90;;;0.20;;
54831;SDS011;40730;53.068;6.572;2023-08-08T12:43:01;1.83;;;0.20;;
54831;SDS011;40730;53.068;6.572;2023-08-08T12:45:26;4.55;;;0.20;;
54831;SDS011;40730;53.068;6.572;2023-08-08T12:47:52;2.30;;;0.20;;
54831;SDS011;40730;53.068;6.572;2023-08-08T12:50:17;3.85;;;0.30;;
54831;SDS011;40730;53.068;6.572;2023-08-08T12:52:43;4.25;;;0.20;;
54831;SDS011;40730;53.068;6.572;2023-08-08T12:55:09;2.47;;;0.20;;
54831;SDS011;40730;53.068;6.572;2023-08-08T12:57:36;4.05;;;0.20;;
54831;SDS011;40730;53.068;6.572;2023-08-08T13:00:03;2.92;;;0.20;;
54831;SDS011;40730;53.068;6.572;2023-08-08T13:02:29;3.53;;;0.20;;
54831;SDS011;40730;53.068;6.572;2023-08-08T13:04:55;2.13;;;0.30;;
54831;SDS011;40730;53.068;6.572;2023-08-08T13:07:20;2.58;;;0.50;;
54831;SDS011;40730;53.068;6.572;2023-08-08T13:09:46;2.40;;;0.30;;
54831;SDS011;40730;53.068;6.572;2023-08-08T13:12:11;4.18;;;0.10;;
54831;SDS011;40730;53.068;6.572;2023-08-08T13:14:37;5.28;;;0.40;;
54831;SDS011;40730;53.068;6.572;2023-08-08T13:17:03;4.50;;;0.10;;
54831;SDS011;40730;53.068;6.572;2023-08-08T13:19:29;8.63;;;1.20;;
54831;SDS011;40730;53.068;6.572;2023-08-08T13:21:55;1.50;;;0.20;;
54831;SDS011;40730;53.068;6.572;2023-08-08T13:24:21;6.38;;;0.75;;
54831;SDS011;40730;53.068;6.572;2023-08-08T13:26:48;3.80;;;0.50;;
54831;SDS011;40730;53.068;6.572;2023-08-08T13:29:14;4.22;;;0.20;;
54831;SDS011;40730;53.068;6.572;2023-08-08T13:31:40;2.70;;;0.45;;
54831;SDS011;40730;53.068;6.572;2023-08-08T13:34:06;5.78;;;0.20;;
54831;SDS011;40730;53.068;6.572;2023-08-08T13:36:31;2.33;;;0.20;;
54831;SDS011;40730;53.068;6.572;2023-08-08T13:38:57;5.97;;;0.30;;
54831;SDS011;40730;53.068;6.572;2023-08-08T13:41:23;3.17;;;0.20;;
54831;SDS011;40730;53.068;6.572;2023-08-08T13:43:49;2.85;;;0.35;;
54831;SDS011;40730;53.068;6.572;2023-08-08T13:46:14;2.50;;;0.10;;
54831;SDS011;40730;53.068;6.572;2023-08-08T13:48:40;5.57;;;0.30;;
54831;SDS011;40730;53.068;6.572;2023-08-08T13:51:06;3.63;;;0.20;;
54831;SDS011;40730;53.068;6.572;2023-08-08T13:53:32;3.90;;;0.47;;
54831;SDS011;40730;53.068;6.572;2023-08-08T13:55:59;3.65;;;0.30;;
54831;SDS011;40730;53.068;6.572;2023-08-08T13:58:24;4.15;;;0.30;;
54831;SDS011;40730;53.068;6.572;2023-08-08T14:00:50;4.75;;;0.20;;
54831;SDS011;40730;53.068;6.572;2023-08-08T14:03:16;4.78;;;0.40;;
54831;SDS011;40730;53.068;6.572;2023-08-08T14:05:42;4.93;;;0.30;;
54831;SDS011;40730;53.068;6.572;2023-08-08T14:08:08;2.83;;;0.30;;
54831;SDS011;40730;53.068;6.572;2023-08-08T14:10:35;5.82;;;0.30;;
54831;SDS011;40730;53.068;6.572;2023-08-08T14:13:00;5.53;;;0.47;;
54831;SDS011;40730;53.068;6.572;2023-08-08T14:15:26;5.72;;;0.25;;
54831;SDS011;40730;53.068;6.572;2023-08-08T14:17:53;4.78;;;0.30;;
54831;SDS011;40730;53.068;6.572;2023-08-08T14:20:19;3.30;;;0.50;;
54831;SDS011;40730;53.068;6.572;2023-08-08T14:22:45;3.70;;;0.30;;
54831;SDS011;40730;53.068;6.572;2023-08-08T14:25:12;8.50;;;0.60;;
54831;SDS011;40730;53.068;6.572;2023-08-08T14:27:38;5.55;;;0.22;;
54831;SDS011;40730;53.068;6.572;2023-08-08T14:30:04;2.03;;;0.20;;
54831;SDS011;40730;53.068;6.572;2023-08-08T14:32:30;6.90;;;0.40;;
54831;SDS011;40730;53.068;6.572;2023-08-08T14:34:55;2.47;;;0.30;;
54831;SDS011;40730;53.068;6.572;2023-08-08T14:37:21;5.05;;;0.20;;
54831;SDS011;40730;53.068;6.572;2023-08-08T14:39:47;4.50;;;0.25;;
54831;SDS011;40730;53.068;6.572;2023-08-08T14:42:13;4.18;;;0.45;;
54831;SDS011;40730;53.068;6.572;2023-08-08T14:44:38;2.97;;;0.20;;
54831;SDS011;40730;53.068;6.572;2023-08-08T14:47:04;2.67;;;0.40;;